Time;durP1;ratioP1;P1;durP2;ratioP2;P2;SDS_P1;SDS_P2;PMS_P1;PMS_P2;Temp;Humidity;BMP_temperature;BMP_pressure;BME280_temperature;BME280_humidity;BME280_pressure;Samples;Min_cycle;Max_cycle;Signal;HPM_P1;HPM_P2
2021/11/05 00:19:44;;;;;;;74.40;8.73;;;;;;;;;;4286841;33;20514;-65
2021/11/05 00:22:10;;;;;;;147.10;14.65;;;;;;;;;;4289921;33;20136;-66
2021/11/05 00:24:36;;;;;;;146.93;17.70;;;;;;;;;;4289927;33;20506;-65
2021/11/05 00:27:02;;;;;;;134.87;15.75;;;;;;;;;;4289879;33;20195;-65
2021/11/05 00:29:27;;;;;;;121.78;16.65;;;;;;;;;;4289774;33;20102;-66
2021/11/05 00:31:53;;;;;;;115.30;13.48;;;;;;;;;;4289725;33;20139;-65
2021/11/05 00:34:19;;;;;;;132.23;14.93;;;;;;;;;;4275751;33;20096;-65
2021/11/05 00:36:45;;;;;;;52.40;7.18;;;;;;;;;;4289685;33;20088;-65
2021/11/05 00:39:11;;;;;;;109.30;13.35;;;;;;;;;;4289625;33;20131;-63
2021/11/05 00:41:37;;;;;;;103.95;13.38;;;;;;;;;;4289729;33;20511;-64
2021/11/05 00:44:03;;;;;;;96.95;12.73;;;;;;;;;;4288056;33;20522;-63
2021/11/05 00:46:29;;;;;;;167.05;19.35;;;;;;;;;;4289588;33;20118;-64
2021/11/05 00:48:57;;;;;;;102.80;12.75;;;;;;;;;;4289608;33;20131;-63
2021/11/05 00:51:23;;;;;;;135.25;15.13;;;;;;;;;;4289567;33;20207;-65
2021/11/05 00:53:49;;;;;;;100.10;13.18;;;;;;;;;;4289251;33;20094;-65
2021/11/05 00:56:15;;;;;;;151.02;19.58;;;;;;;;;;4289537;33;20135;-65
2021/11/05 00:58:41;;;;;;;168.57;18.50;;;;;;;;;;4289527;33;20211;-65
2021/11/05 01:01:07;;;;;;;163.82;19.52;;;;;;;;;;4288393;33;20115;-65
2021/11/05 01:03:33;;;;;;;136.77;19.05;;;;;;;;;;4289519;33;20119;-65
2021/11/05 01:05:59;;;;;;;154.63;21.67;;;;;;;;;;4289288;33;20119;-66
2021/11/05 01:08:25;;;;;;;160.40;18.77;;;;;;;;;;4289288;33;20125;-65
2021/11/05 01:10:51;;;;;;;159.87;19.00;;;;;;;;;;4276040;33;20123;-65
2021/11/05 01:13:16;;;;;;;177.80;22.55;;;;;;;;;;4289197;33;20625;-65
2021/11/05 01:15:42;;;;;;;172.50;19.85;;;;;;;;;;4287809;33;20211;-65
2021/11/05 01:18:08;;;;;;;168.30;18.12;;;;;;;;;;4289164;33;20423;-65
2021/11/05 01:20:34;;;;;;;150.87;17.02;;;;;;;;;;4289102;33;20459;-65
2021/11/05 01:23:00;;;;;;;149.15;17.02;;;;;;;;;;4289192;33;20274;-65
2021/11/05 01:25:26;;;;;;;53.58;8.25;;;;;;;;;;4263882;33;20124;-65
2021/11/05 01:27:52;;;;;;;171.30;16.52;;;;;;;;;;4289301;33;20118;-65
2021/11/05 01:30:18;;;;;;;164.55;19.08;;;;;;;;;;4289121;33;20515;-65
2021/11/05 01:32:44;;;;;;;158.37;21.12;;;;;;;;;;4289076;33;20120;-65
2021/11/05 01:35:10;;;;;;;53.17;7.93;;;;;;;;;;4289006;33;20130;-66
2021/11/05 01:37:36;;;;;;;134.35;16.48;;;;;;;;;;4289142;33;20519;-65
2021/11/05 01:40:03;;;;;;;149.40;18.02;;;;;;;;;;4289215;33;20114;-65
2021/11/05 01:42:29;;;;;;;78.37;9.70;;;;;;;;;;4288781;33;20115;-65
2021/11/05 01:44:55;;;;;;;129.85;13.55;;;;;;;;;;4289237;33;20207;-65
2021/11/05 01:47:21;;;;;;;136.02;17.98;;;;;;;;;;4288884;33;20131;-65
2021/11/05 01:49:47;;;;;;;37.20;6.05;;;;;;;;;;4288827;33;20504;-66
2021/11/05 01:52:16;;;;;;;140.73;13.43;;;;;;;;;;4288855;33;20237;-66
2021/11/05 01:54:42;;;;;;;111.20;16.35;;;;;;;;;;4288846;33;20098;-67
2021/11/05 01:57:08;;;;;;;148.60;14.80;;;;;;;;;;4288829;33;20119;-65
2021/11/05 01:59:35;;;;;;;140.18;16.62;;;;;;;;;;4275243;33;20199;-65
2021/11/05 02:02:02;;;;;;;148.15;18.90;;;;;;;;;;4288902;33;20091;-65
2021/11/05 02:04:28;;;;;;;160.88;19.80;;;;;;;;;;4288650;33;20239;-66
2021/11/05 02:06:54;;;;;;;142.55;16.42;;;;;;;;;;4288795;33;20853;-66
2021/11/05 02:09:21;;;;;;;140.27;15.73;;;;;;;;;;4288407;33;20440;-66
2021/11/05 02:11:47;;;;;;;161.00;22.42;;;;;;;;;;4288808;33;20549;-66
2021/11/05 02:14:15;;;;;;;183.05;20.17;;;;;;;;;;4288653;33;20218;-66
2021/11/05 02:16:42;;;;;;;176.85;19.25;;;;;;;;;;4288945;33;20127;-66
2021/11/05 02:19:13;;;;;;;170.30;22.50;;;;;;;;;;4288869;33;20136;-65
2021/11/05 02:21:40;;;;;;;171.90;18.65;;;;;;;;;;4288572;33;20221;-65
2021/11/05 02:24:06;;;;;;;135.07;15.73;;;;;;;;;;4263598;33;20440;-65
2021/11/05 02:26:32;;;;;;;172.25;21.65;;;;;;;;;;4288479;33;20108;-65
2021/11/05 02:28:58;;;;;;;109.00;12.93;;;;;;;;;;4275136;33;20151;-66
2021/11/05 02:31:24;;;;;;;109.72;13.23;;;;;;;;;;4288664;33;20209;-66
2021/11/05 02:33:49;;;;;;;111.78;13.90;;;;;;;;;;4288321;33;20190;-66
2021/11/05 02:36:15;;;;;;;161.20;18.85;;;;;;;;;;4286968;33;20106;-66
2021/11/05 02:38:41;;;;;;;108.87;14.23;;;;;;;;;;4288372;33;20191;-66
2021/11/05 02:41:07;;;;;;;126.15;15.40;;;;;;;;;;4288305;33;20194;-66
2021/11/05 02:43:33;;;;;;;153.82;17.25;;;;;;;;;;4288532;33;20282;-66
2021/11/05 02:45:59;;;;;;;143.35;16.52;;;;;;;;;;4288314;33;20122;-66
2021/11/05 02:48:27;;;;;;;138.98;15.90;;;;;;;;;;4288487;33;20115;-65
2021/11/05 02:50:54;;;;;;;132.37;16.37;;;;;;;;;;4288208;33;20118;-65
2021/11/05 02:53:20;;;;;;;142.93;16.65;;;;;;;;;;4288769;33;20119;-65
2021/11/05 02:55:46;;;;;;;163.35;19.77;;;;;;;;;;4290526;33;20088;-65
2021/11/05 02:58:12;;;;;;;165.85;20.55;;;;;;;;;;4290509;33;20119;-66
2021/11/05 03:00:39;;;;;;;193.43;18.50;;;;;;;;;;4290381;33;20094;-65
2021/11/05 03:03:05;;;;;;;164.73;21.15;;;;;;;;;;4290312;33;20126;-65
2021/11/05 03:05:31;;;;;;;148.82;18.25;;;;;;;;;;4290362;33;20104;-65
2021/11/05 03:07:57;;;;;;;155.55;17.10;;;;;;;;;;4290321;33;20131;-64
2021/11/05 03:10:23;;;;;;;169.80;22.37;;;;;;;;;;4290369;33;20122;-65
2021/11/05 03:12:49;;;;;;;135.73;20.08;;;;;;;;;;4290501;33;20116;-65
2021/11/05 03:15:15;;;;;;;157.25;20.00;;;;;;;;;;4290420;33;20206;-64
2021/11/05 03:17:40;;;;;;;151.60;18.92;;;;;;;;;;4290328;33;20119;-65
2021/11/05 03:20:07;;;;;;;166.93;19.98;;;;;;;;;;4276731;33;20138;-64
2021/11/05 03:22:33;;;;;;;150.45;18.20;;;;;;;;;;4289661;33;20131;-65
2021/11/05 03:24:59;;;;;;;170.82;19.75;;;;;;;;;;4290025;33;20111;-65
2021/11/05 03:27:25;;;;;;;172.65;18.50;;;;;;;;;;4290196;33;20220;-64
2021/11/05 03:29:51;;;;;;;151.07;20.25;;;;;;;;;;4290269;33;20139;-65
2021/11/05 03:32:17;;;;;;;157.98;15.55;;;;;;;;;;4290269;33;20436;-66
2021/11/05 03:34:43;;;;;;;106.93;13.93;;;;;;;;;;4290203;33;20100;-65
2021/11/05 03:37:09;;;;;;;141.37;15.10;;;;;;;;;;4290155;33;20125;-65
2021/11/05 03:39:35;;;;;;;152.25;18.80;;;;;;;;;;4290036;33;20210;-65
2021/11/05 03:42:01;;;;;;;157.65;18.73;;;;;;;;;;4290212;33;20192;-65
2021/11/05 03:44:27;;;;;;;148.65;20.05;;;;;;;;;;4290260;33;20187;-63
2021/11/05 03:46:53;;;;;;;130.82;16.45;;;;;;;;;;4276643;33;20153;-64
2021/11/05 03:49:19;;;;;;;126.75;18.75;;;;;;;;;;4289858;33;20134;-63
2021/11/05 03:51:45;;;;;;;163.12;20.55;;;;;;;;;;4290088;33;20622;-64
2021/11/05 03:54:11;;;;;;;139.15;16.85;;;;;;;;;;4290424;33;20130;-64
2021/11/05 03:56:36;;;;;;;134.15;14.15;;;;;;;;;;4289384;33;20131;-64
2021/11/05 03:59:02;;;;;;;138.90;14.90;;;;;;;;;;4291031;33;20210;-64
2021/11/05 04:01:28;;;;;;;154.07;19.42;;;;;;;;;;4291304;33;20195;-64
2021/11/05 04:03:54;;;;;;;136.90;16.85;;;;;;;;;;4290808;33;20120;-63
2021/11/05 04:06:20;;;;;;;170.32;19.58;;;;;;;;;;4289795;33;20132;-60
2021/11/05 04:08:46;;;;;;;162.00;21.33;;;;;;;;;;4263776;33;20218;-60
2021/11/05 04:11:12;;;;;;;183.90;20.98;;;;;;;;;;4290201;33;20127;-60
2021/11/05 04:13:38;;;;;;;155.52;20.83;;;;;;;;;;4289723;33;20139;-61
2021/11/05 04:16:04;;;;;;;136.65;18.33;;;;;;;;;;4287877;33;20132;-61
2021/11/05 04:18:30;;;;;;;193.13;23.77;;;;;;;;;;4289833;33;20145;-61
2021/11/05 04:20:56;;;;;;;148.13;21.40;;;;;;;;;;4289239;33;20658;-61
2021/11/05 04:23:22;;;;;;;159.60;21.37;;;;;;;;;;4289627;33;20204;-61
2021/11/05 04:25:48;;;;;;;175.43;19.90;;;;;;;;;;4289426;33;20582;-61
2021/11/05 04:28:14;;;;;;;135.68;18.12;;;;;;;;;;4276200;33;20229;-62
2021/11/05 04:30:40;;;;;;;170.25;18.92;;;;;;;;;;4289545;33;20211;-61
2021/11/05 04:33:06;;;;;;;160.50;18.98;;;;;;;;;;4289359;33;20115;-61
2021/11/05 04:35:32;;;;;;;168.93;20.50;;;;;;;;;;4275918;33;20195;-59
2021/11/05 04:37:59;;;;;;;161.93;16.87;;;;;;;;;;4289323;33;20545;-61
2021/11/05 04:40:24;;;;;;;145.38;16.00;;;;;;;;;;4289480;33;20544;-60
2021/11/05 04:42:50;;;;;;;147.50;21.90;;;;;;;;;;4289595;33;20127;-61
2021/11/05 04:45:16;;;;;;;139.37;19.12;;;;;;;;;;4289066;33;20115;-61
2021/11/05 04:47:42;;;;;;;133.63;17.40;;;;;;;;;;4285369;33;20139;-60
2021/11/05 04:50:08;;;;;;;171.70;18.17;;;;;;;;;;4280749;33;20492;-61
2021/11/05 04:52:35;;;;;;;146.13;18.83;;;;;;;;;;4286352;33;20634;-61
2021/11/05 04:55:01;;;;;;;117.13;15.65;;;;;;;;;;4289212;33;20182;-60
2021/11/05 04:57:26;;;;;;;136.30;16.05;;;;;;;;;;4288839;33;20540;-61
2021/11/05 04:59:52;;;;;;;119.47;16.62;;;;;;;;;;4289378;33;20186;-61
2021/11/05 05:02:19;;;;;;;140.02;18.15;;;;;;;;;;4288950;33;20532;-61
2021/11/05 05:04:46;;;;;;;131.68;16.67;;;;;;;;;;4289306;33;20200;-60
2021/11/05 05:07:12;;;;;;;144.25;19.67;;;;;;;;;;4285428;33;20116;-60
2021/11/05 05:09:38;;;;;;;145.18;16.62;;;;;;;;;;4274573;33;20132;-63
2021/11/05 05:12:05;;;;;;;107.35;16.20;;;;;;;;;;4283102;33;20115;-65
2021/11/05 05:14:31;;;;;;;153.00;22.13;;;;;;;;;;4289063;33;20100;-65
2021/11/05 05:16:57;;;;;;;183.75;20.88;;;;;;;;;;4288219;33;20124;-64
2021/11/05 05:19:23;;;;;;;133.90;19.75;;;;;;;;;;4288843;33;20195;-65
2021/11/05 05:21:48;;;;;;;145.95;15.50;;;;;;;;;;4289112;33;20552;-64
2021/11/05 05:24:14;;;;;;;144.02;18.73;;;;;;;;;;4273135;33;20131;-66
2021/11/05 05:26:41;;;;;;;118.97;15.68;;;;;;;;;;4273681;33;20087;-65
2021/11/05 05:29:06;;;;;;;168.87;18.05;;;;;;;;;;4288961;33;20101;-66
2021/11/05 05:31:33;;;;;;;152.60;16.62;;;;;;;;;;4289048;33;20115;-66
2021/11/05 05:33:59;;;;;;;122.60;15.23;;;;;;;;;;4288981;33;20532;-66
2021/11/05 05:36:25;;;;;;;157.60;19.30;;;;;;;;;;4288983;33;20130;-66
2021/11/05 05:38:51;;;;;;;160.25;20.08;;;;;;;;;;4289008;33;20108;-65
2021/11/05 05:41:17;;;;;;;138.02;18.95;;;;;;;;;;4288924;33;20092;-66
2021/11/05 05:43:43;;;;;;;187.52;19.95;;;;;;;;;;4289069;33;20126;-65
2021/11/05 05:46:10;;;;;;;144.50;20.15;;;;;;;;;;4288799;33;20510;-65
2021/11/05 05:48:36;;;;;;;151.60;18.87;;;;;;;;;;4275449;33;20487;-67
2021/11/05 05:51:02;;;;;;;158.18;18.10;;;;;;;;;;4288887;33;20174;-65
2021/11/05 05:53:28;;;;;;;132.82;18.37;;;;;;;;;;4288879;33;20175;-64
2021/11/05 05:55:54;;;;;;;154.00;20.45;;;;;;;;;;4287392;33;20202;-62
2021/11/05 05:58:20;;;;;;;154.93;17.87;;;;;;;;;;4288902;33;20092;-65
2021/11/05 06:00:47;;;;;;;146.20;19.08;;;;;;;;;;4288948;33;20495;-65
2021/11/05 06:03:13;;;;;;;145.20;17.42;;;;;;;;;;4287872;33;20543;-65
2021/11/05 06:05:39;;;;;;;163.95;20.35;;;;;;;;;;4289004;33;20102;-62
2021/11/05 06:08:05;;;;;;;167.32;21.12;;;;;;;;;;4288705;33;20083;-63
2021/11/05 06:10:31;;;;;;;47.65;8.80;;;;;;;;;;4288989;33;20209;-64
2021/11/05 06:12:57;;;;;;;154.50;19.92;;;;;;;;;;4285780;33;20114;-64
2021/11/05 06:15:23;;;;;;;153.93;18.08;;;;;;;;;;4286222;33;20175;-64
2021/11/05 06:17:49;;;;;;;169.60;19.52;;;;;;;;;;4288473;33;20113;-64
2021/11/05 06:20:15;;;;;;;127.87;16.65;;;;;;;;;;4288698;33;20201;-63
2021/11/05 06:22:41;;;;;;;146.45;20.25;;;;;;;;;;4288497;33;20116;-63
2021/11/05 06:25:07;;;;;;;144.25;16.10;;;;;;;;;;4288625;33;20535;-62
2021/11/05 06:27:33;;;;;;;173.65;22.00;;;;;;;;;;4275701;33;20131;-62
2021/11/05 06:29:59;;;;;;;156.20;19.65;;;;;;;;;;4290851;33;20128;-66
2021/11/05 06:32:25;;;;;;;134.43;18.67;;;;;;;;;;4290438;33;20128;-66
2021/11/05 06:34:51;;;;;;;126.75;20.20;;;;;;;;;;4290687;33;20302;-65
2021/11/05 06:37:17;;;;;;;147.68;16.20;;;;;;;;;;4290578;33;20092;-61
2021/11/05 06:39:42;;;;;;;156.80;19.15;;;;;;;;;;4290997;33;20108;-62
2021/11/05 06:42:08;;;;;;;153.30;20.48;;;;;;;;;;4290758;33;20134;-60
2021/11/05 06:44:34;;;;;;;141.35;19.60;;;;;;;;;;4290640;33;20103;-70
2021/11/05 06:47:00;;;;;;;142.30;17.58;;;;;;;;;;4277262;33;20120;-69
2021/11/05 06:49:26;;;;;;;138.18;18.65;;;;;;;;;;4265370;33;20104;-68
2021/11/05 06:51:54;;;;;;;147.23;17.77;;;;;;;;;;4290572;33;20175;-64
2021/11/05 06:54:21;;;;;;;118.87;15.13;;;;;;;;;;4289269;33;20443;-64
2021/11/05 06:56:47;;;;;;;128.48;18.05;;;;;;;;;;4277461;33;20107;-63
2021/11/05 06:59:13;;;;;;;131.98;18.73;;;;;;;;;;4277132;33;20183;-64
2021/11/05 07:01:39;;;;;;;110.95;14.50;;;;;;;;;;4290763;33;20206;-64
2021/11/05 07:04:05;;;;;;;158.52;17.20;;;;;;;;;;4276818;33;20098;-64
2021/11/05 07:06:31;;;;;;;148.57;16.65;;;;;;;;;;4277385;33;20206;-63
2021/11/05 07:08:57;;;;;;;135.43;17.12;;;;;;;;;;4277236;33;20092;-64
2021/11/05 07:11:23;;;;;;;130.98;15.80;;;;;;;;;;4290344;33;20119;-63
2021/11/05 07:13:48;;;;;;;125.75;15.77;;;;;;;;;;4290273;33;20981;-63
2021/11/05 07:16:15;;;;;;;124.68;14.32;;;;;;;;;;4277309;33;20197;-63
2021/11/05 07:18:40;;;;;;;102.50;13.38;;;;;;;;;;4290252;33;20116;-62
2021/11/05 07:21:07;;;;;;;93.93;12.98;;;;;;;;;;4290336;33;20627;-63
2021/11/05 07:23:33;;;;;;;97.57;10.88;;;;;;;;;;4288741;33;20120;-62
2021/11/05 07:26:00;;;;;;;100.50;13.80;;;;;;;;;;4263736;33;20201;-71
2021/11/05 07:28:26;;;;;;;112.62;17.42;;;;;;;;;;4288852;33;20130;-71
2021/11/05 07:30:52;;;;;;;99.45;13.13;;;;;;;;;;4275881;33;20131;-71
2021/11/05 07:33:18;;;;;;;119.07;15.90;;;;;;;;;;4275436;33;20555;-70
2021/11/05 07:35:44;;;;;;;109.30;12.57;;;;;;;;;;4288966;33;20107;-69
2021/11/05 07:38:10;;;;;;;91.85;13.98;;;;;;;;;;4288258;33;20527;-68
2021/11/05 07:40:35;;;;;;;102.28;12.05;;;;;;;;;;4288442;33;20515;-67
2021/11/05 07:43:01;;;;;;;106.80;15.50;;;;;;;;;;4288768;33;20542;-68
2021/11/05 07:45:28;;;;;;;106.72;12.90;;;;;;;;;;4287785;33;20619;-68
2021/11/05 07:47:55;;;;;;;90.70;12.07;;;;;;;;;;4273422;33;20120;-71
2021/11/05 07:50:23;;;;;;;88.12;13.07;;;;;;;;;;4287940;33;20104;-69
2021/11/05 07:52:49;;;;;;;95.75;11.98;;;;;;;;;;4288633;33;20134;-71
2021/11/05 07:55:15;;;;;;;88.20;14.10;;;;;;;;;;4273844;33;20520;-69
2021/11/05 07:57:41;;;;;;;87.10;11.00;;;;;;;;;;4286555;33;20115;-70
2021/11/05 08:00:09;;;;;;;96.18;14.25;;;;;;;;;;4286866;33;20127;-69
2021/11/05 08:02:35;;;;;;;87.75;15.77;;;;;;;;;;4273830;33;20095;-70
2021/11/05 08:05:01;;;;;;;88.68;12.68;;;;;;;;;;4287936;33;20629;-68
2021/11/05 08:07:26;;;;;;;78.05;10.98;;;;;;;;;;4288140;33;20108;-68
2021/11/05 08:09:52;;;;;;;114.45;14.57;;;;;;;;;;4288997;33;20124;-68
2021/11/05 08:12:18;;;;;;;132.65;16.90;;;;;;;;;;4264344;33;20135;-68
2021/11/05 08:14:45;;;;;;;109.28;14.20;;;;;;;;;;4289850;33;20132;-68
2021/11/05 08:17:11;;;;;;;117.37;13.98;;;;;;;;;;4288560;33;20123;-68
2021/11/05 08:19:37;;;;;;;109.25;13.10;;;;;;;;;;4290165;33;20713;-67
2021/11/05 08:22:03;;;;;;;102.82;13.82;;;;;;;;;;4289599;33;20218;-68
2021/11/05 08:24:28;;;;;;;103.03;12.18;;;;;;;;;;4276703;33;20126;-68
2021/11/05 08:26:54;;;;;;;112.45;13.38;;;;;;;;;;4289764;33;20115;-68
2021/11/05 08:29:20;;;;;;;67.22;9.85;;;;;;;;;;4276632;33;20231;-68
2021/11/05 08:31:46;;;;;;;104.60;14.05;;;;;;;;;;4272234;33;20440;-68
2021/11/05 08:34:12;;;;;;;96.55;13.15;;;;;;;;;;4263806;33;20103;-67
2021/11/05 08:36:39;;;;;;;116.80;14.27;;;;;;;;;;4278457;33;20124;-66
2021/11/05 08:39:05;;;;;;;117.37;14.13;;;;;;;;;;4275799;33;20100;-66
2021/11/05 08:41:32;;;;;;;98.12;13.82;;;;;;;;;;4287812;33;20589;-65
2021/11/05 08:43:58;;;;;;;95.03;15.05;;;;;;;;;;4284523;33;20116;-63
2021/11/05 08:46:24;;;;;;;93.95;13.62;;;;;;;;;;4277048;33;20128;-63
2021/11/05 08:49:11;;;;;;;103.97;11.77;;;;;;;;;;4275701;33;20131;-63
2021/11/05 08:51:38;;;;;;;80.32;10.57;;;;;;;;;;4287893;33;20119;-68
2021/11/05 08:54:04;;;;;;;65.43;10.07;;;;;;;;;;4288426;33;20084;-68
2021/11/05 08:56:30;;;;;;;72.20;10.88;;;;;;;;;;4277526;33;20115;-67
2021/11/05 08:58:56;;;;;;;57.13;10.25;;;;;;;;;;4289108;33;20127;-68
2021/11/05 09:01:22;;;;;;;83.12;11.50;;;;;;;;;;4288857;33;20178;-67
2021/11/05 09:03:48;;;;;;;60.45;7.90;;;;;;;;;;4289330;33;20120;-66
2021/11/05 09:06:14;;;;;;;77.00;9.00;;;;;;;;;;4288882;33;20218;-67
2021/11/05 09:08:42;;;;;;;63.15;7.75;;;;;;;;;;4289425;33;20120;-67
2021/11/05 09:11:07;;;;;;;78.87;8.90;;;;;;;;;;4288920;33;20108;-67
2021/11/05 09:13:34;;;;;;;72.60;8.98;;;;;;;;;;4289149;33;20459;-66
2021/11/05 09:16:01;;;;;;;82.10;10.70;;;;;;;;;;4287497;33;20099;-66
2021/11/05 09:18:27;;;;;;;72.68;10.43;;;;;;;;;;4262643;33;20097;-62
2021/11/05 09:20:53;;;;;;;78.05;11.48;;;;;;;;;;4288877;33;20102;-62
2021/11/05 09:23:19;;;;;;;91.87;14.50;;;;;;;;;;4289040;33;20135;-61
2021/11/05 09:25:45;;;;;;;75.82;12.77;;;;;;;;;;4289280;33;20559;-60
2021/11/05 09:28:11;;;;;;;78.90;10.30;;;;;;;;;;4289422;33;20138;-61
2021/11/05 09:30:37;;;;;;;95.60;11.57;;;;;;;;;;4289151;33;20325;-60
2021/11/05 09:33:03;;;;;;;88.15;12.32;;;;;;;;;;4289447;33;20218;-60
2021/11/05 09:35:28;;;;;;;73.10;12.37;;;;;;;;;;4289462;33;20578;-60
2021/11/05 09:37:55;;;;;;;73.25;13.62;;;;;;;;;;4289197;33;20107;-62
2021/11/05 09:40:23;;;;;;;105.97;15.02;;;;;;;;;;4289361;33;20100;-62
2021/11/05 09:42:49;;;;;;;103.57;14.70;;;;;;;;;;4289579;33;20432;-62
2021/11/05 09:45:17;;;;;;;118.43;16.75;;;;;;;;;;4289171;33;20507;-62
2021/11/05 09:47:45;;;;;;;104.60;13.43;;;;;;;;;;4275905;33;20108;-61
2021/11/05 09:50:12;;;;;;;127.87;15.98;;;;;;;;;;4288853;33;20171;-60
2021/11/05 09:52:39;;;;;;;116.85;13.70;;;;;;;;;;4287611;33;20135;-60
2021/11/05 09:55:05;;;;;;;102.65;15.20;;;;;;;;;;4288943;33;20107;-60
2021/11/05 09:57:31;;;;;;;99.40;12.45;;;;;;;;;;4289100;33;20124;-61
2021/11/05 09:59:58;;;;;;;113.32;14.77;;;;;;;;;;4288793;33;20233;-60
2021/11/05 10:02:24;;;;;;;116.35;16.17;;;;;;;;;;4289375;33;20096;-70
2021/11/05 10:04:51;;;;;;;110.97;15.70;;;;;;;;;;4291131;33;20484;-65
2021/11/05 10:07:17;;;;;;;99.85;14.43;;;;;;;;;;4289393;33;20139;-66
2021/11/05 10:09:53;;;;;;;86.07;11.45;;;;;;;;;;4290387;33;20115;-66
2021/11/05 10:12:22;;;;;;;87.97;14.70;;;;;;;;;;4290753;33;20222;-66
2021/11/05 10:15:02;;;;;;;95.32;13.07;;;;;;;;;;4277494;33;20522;-66
2021/11/05 10:17:28;;;;;;;97.50;14.43;;;;;;;;;;4263360;33;20311;-66
2021/11/05 10:19:58;;;;;;;75.10;11.05;;;;;;;;;;4276285;33;20113;-66
2021/11/05 10:22:52;;;;;;;69.82;11.40;;;;;;;;;;4274478;33;20131;-66
2021/11/05 10:25:29;;;;;;;68.40;11.70;;;;;;;;;;4273072;33;20215;-66
2021/11/05 10:28:24;;;;;;;74.25;12.75;;;;;;;;;;4275858;33;20123;-66
2021/11/05 10:31:09;;;;;;;56.45;12.30;;;;;;;;;;4261463;33;20095;-66
2021/11/05 10:33:39;;;;;;;71.10;10.40;;;;;;;;;;4262290;33;20195;-65
2021/11/05 10:36:06;;;;;;;57.70;10.45;;;;;;;;;;4276356;33;20107;-66
2021/11/05 10:38:35;;;;;;;68.75;14.18;;;;;;;;;;4276243;33;20112;-66
2021/11/05 10:41:02;;;;;;;58.95;10.98;;;;;;;;;;4276233;33;20202;-66
2021/11/05 10:43:32;;;;;;;68.50;10.82;;;;;;;;;;4276011;33;20131;-66
2021/11/05 10:45:58;;;;;;;54.25;9.63;;;;;;;;;;4276319;33;20476;-66
2021/11/05 10:48:27;;;;;;;54.30;12.02;;;;;;;;;;4262653;33;20120;-66
2021/11/05 10:50:58;;;;;;;63.87;9.98;;;;;;;;;;4287665;33;20098;-66
2021/11/05 10:53:30;;;;;;;52.25;11.55;;;;;;;;;;4290530;33;20134;-67
2021/11/05 10:56:06;;;;;;;57.92;12.73;;;;;;;;;;4289077;33;20106;-66
2021/11/05 10:58:37;;;;;;;46.10;9.75;;;;;;;;;;4290709;33;20444;-67
2021/11/05 11:01:07;;;;;;;50.30;9.05;;;;;;;;;;4290743;33;20120;-68
2021/11/05 11:03:41;;;;;;;57.30;10.68;;;;;;;;;;4290589;33;20123;-67
2021/11/05 11:06:10;;;;;;;43.25;8.82;;;;;;;;;;4289262;33;20584;-67
2021/11/05 11:08:40;;;;;;;65.18;8.65;;;;;;;;;;4277075;33;20186;-66
2021/11/05 11:11:24;;;;;;;45.88;7.82;;;;;;;;;;4277194;33;20110;-67
2021/11/05 11:13:54;;;;;;;48.10;8.35;;;;;;;;;;4289629;33;20516;-67
2021/11/05 11:16:24;;;;;;;54.33;11.35;;;;;;;;;;4290155;33;20641;-67
2021/11/05 11:18:56;;;;;;;44.80;10.35;;;;;;;;;;4290516;33;20124;-67
2021/11/05 11:21:25;;;;;;;48.63;8.98;;;;;;;;;;4290393;33;20111;-66
2021/11/05 11:23:51;;;;;;;53.38;9.48;;;;;;;;;;4290429;33;20210;-67
2021/11/05 11:26:17;;;;;;;43.70;8.07;;;;;;;;;;4277205;33;20108;-67
2021/11/05 11:28:43;;;;;;;61.45;10.10;;;;;;;;;;4265381;33;20123;-67
2021/11/05 11:31:12;;;;;;;45.67;9.27;;;;;;;;;;4290241;33;20103;-67
2021/11/05 11:33:39;;;;;;;62.00;8.23;;;;;;;;;;4290190;33;20571;-67
2021/11/05 11:36:06;;;;;;;53.30;8.95;;;;;;;;;;4290379;33;20460;-67
2021/11/05 11:38:32;;;;;;;61.92;9.85;;;;;;;;;;4290179;33;20507;-67
2021/11/05 11:40:58;;;;;;;46.33;7.95;;;;;;;;;;4277036;33;20196;-67
2021/11/05 11:43:24;;;;;;;56.65;10.13;;;;;;;;;;4276780;33;20119;-67
2021/11/05 11:45:51;;;;;;;52.25;7.62;;;;;;;;;;4265001;33;20132;-67
2021/11/05 11:48:42;;;;;;;52.25;9.75;;;;;;;;;;4289955;33;20123;-67
2021/11/05 11:51:33;;;;;;;50.78;7.22;;;;;;;;;;4290011;33;20630;-67
2021/11/05 11:54:01;;;;;;;32.75;5.57;;;;;;;;;;4290154;33;20111;-67
2021/11/05 11:56:33;;;;;;;41.30;7.80;;;;;;;;;;4289906;33;20620;-67
2021/11/05 11:59:04;;;;;;;45.90;8.43;;;;;;;;;;4276530;33;20541;-66
2021/11/05 12:01:32;;;;;;;45.03;8.32;;;;;;;;;;4290163;33;20115;-68
2021/11/05 12:04:00;;;;;;;59.22;8.48;;;;;;;;;;4289991;33;20219;-67
2021/11/05 12:06:26;;;;;;;50.90;8.32;;;;;;;;;;4289977;33;20131;-67
2021/11/05 12:08:52;;;;;;;46.92;6.40;;;;;;;;;;4290075;33;20452;-67
2021/11/05 12:11:24;;;;;;;59.08;8.60;;;;;;;;;;4289902;33;20120;-67
2021/11/05 12:14:09;;;;;;;41.92;6.35;;;;;;;;;;4289892;33;20112;-67
2021/11/05 12:16:36;;;;;;;38.42;6.82;;;;;;;;;;4289784;33;20131;-66
2021/11/05 12:19:06;;;;;;;44.60;5.93;;;;;;;;;;4289581;33;20126;-66
2021/11/05 12:21:45;;;;;;;42.22;6.68;;;;;;;;;;4289774;33;20131;-66
2021/11/05 12:24:14;;;;;;;45.80;5.93;;;;;;;;;;4289909;33;20124;-65
2021/11/05 12:26:45;;;;;;;53.22;6.80;;;;;;;;;;4289647;33;20182;-66
2021/11/05 12:29:21;;;;;;;30.33;6.97;;;;;;;;;;4289866;33;20218;-68
2021/11/05 12:31:48;;;;;;;59.55;8.07;;;;;;;;;;4254229;33;20210;-66
2021/11/05 12:34:35;;;;;;;47.78;7.03;;;;;;;;;;4276144;33;20132;-67
2021/11/05 12:37:02;;;;;;;40.00;7.93;;;;;;;;;;4277176;33;20088;-66
2021/11/05 12:39:33;;;;;;;39.35;6.87;;;;;;;;;;4289549;33;20218;-67
2021/11/05 12:42:15;;;;;;;46.15;6.53;;;;;;;;;;4289539;33;20512;-66
2021/11/05 12:45:00;;;;;;;49.67;7.87;;;;;;;;;;4289877;33;20197;-66
2021/11/05 12:47:58;;;;;;;51.03;6.70;;;;;;;;;;4289418;33;20523;-66
2021/11/05 12:50:27;;;;;;;40.70;6.62;;;;;;;;;;4283318;33;20523;-66
2021/11/05 12:53:07;;;;;;;38.38;6.00;;;;;;;;;;4289873;33;20104;-66
2021/11/05 12:55:37;;;;;;;32.95;4.43;;;;;;;;;;4289455;33;20099;-66
2021/11/05 12:58:05;;;;;;;37.17;7.70;;;;;;;;;;4289541;33;20282;-66
2021/11/05 13:00:33;;;;;;;48.15;7.07;;;;;;;;;;4264382;33;20180;-67
2021/11/05 13:03:01;;;;;;;49.25;7.93;;;;;;;;;;4289450;33;20574;-67
2021/11/05 13:05:28;;;;;;;57.40;7.25;;;;;;;;;;4289367;33;20202;-66
2021/11/05 13:08:07;;;;;;;32.15;8.45;;;;;;;;;;4289468;33;20197;-66
2021/11/05 13:10:38;;;;;;;39.22;6.43;;;;;;;;;;4289494;33;20205;-66
2021/11/05 13:13:06;;;;;;;40.53;5.18;;;;;;;;;;4275988;33;20562;-66
2021/11/05 13:15:36;;;;;;;41.88;5.78;;;;;;;;;;4276027;33;20135;-66
2021/11/05 13:18:03;;;;;;;51.75;6.55;;;;;;;;;;4269868;33;20539;-66
2021/11/05 13:20:34;;;;;;;38.78;6.70;;;;;;;;;;4261546;33;20445;-66
2021/11/05 13:23:00;;;;;;;51.20;8.60;;;;;;;;;;4261876;33;20130;-66
2021/11/05 13:25:36;;;;;;;61.55;7.35;;;;;;;;;;4274884;33;20120;-65
2021/11/05 13:28:06;;;;;;;43.03;9.13;;;;;;;;;;4275124;33;20214;-66
2021/11/05 13:30:34;;;;;;;55.50;7.68;;;;;;;;;;4274772;33;20135;-66
2021/11/05 13:33:01;;;;;;;49.95;6.55;;;;;;;;;;4274916;33;20111;-66
2021/11/05 13:35:27;;;;;;;59.38;7.68;;;;;;;;;;4274817;33;20199;-66
2021/11/05 13:38:04;;;;;;;45.03;6.53;;;;;;;;;;4273988;33;20203;-67
2021/11/05 13:40:30;;;;;;;39.70;7.82;;;;;;;;;;4274665;33;20120;-66
2021/11/05 13:42:56;;;;;;;58.28;8.52;;;;;;;;;;4274750;33;20429;-67
2021/11/05 13:45:22;;;;;;;43.87;9.00;;;;;;;;;;4274714;33;20183;-66
2021/11/05 13:47:50;;;;;;;42.17;7.60;;;;;;;;;;4274633;33;20563;-66
2021/11/05 13:50:20;;;;;;;45.63;8.32;;;;;;;;;;4274578;33;20230;-67
2021/11/05 13:53:01;;;;;;;52.00;10.63;;;;;;;;;;4261476;33;20540;-66
2021/11/05 13:55:28;;;;;;;50.83;8.32;;;;;;;;;;4274513;33;20254;-67
2021/11/05 13:57:54;;;;;;;34.97;5.82;;;;;;;;;;4274718;33;20615;-66
2021/11/05 14:00:20;;;;;;;42.03;7.28;;;;;;;;;;4261060;33;20108;-66
2021/11/05 14:02:48;;;;;;;40.75;5.75;;;;;;;;;;4261369;33;20207;-66
2021/11/05 14:05:14;;;;;;;40.95;8.30;;;;;;;;;;4274511;33;20321;-66
2021/11/05 14:08:02;;;;;;;34.38;5.72;;;;;;;;;;4261175;33;20112;-67
2021/11/05 14:10:28;;;;;;;33.88;5.32;;;;;;;;;;4261026;33;20089;-66
2021/11/05 14:12:58;;;;;;;29.30;5.85;;;;;;;;;;4260989;33;20479;-66
2021/11/05 14:15:26;;;;;;;41.08;6.00;;;;;;;;;;4249804;33;20119;-67
2021/11/05 14:17:52;;;;;;;40.15;5.80;;;;;;;;;;4283869;33;20524;-65
2021/11/05 14:20:29;;;;;;;34.63;6.32;;;;;;;;;;4288561;33;20120;-66
2021/11/05 14:22:55;;;;;;;38.53;8.38;;;;;;;;;;4288745;33;20194;-66
2021/11/05 14:25:26;;;;;;;38.88;7.35;;;;;;;;;;4275121;33;20112;-66
2021/11/05 14:27:53;;;;;;;53.58;7.50;;;;;;;;;;4288429;33;20111;-66
2021/11/05 14:30:21;;;;;;;33.15;6.22;;;;;;;;;;4288768;33;20136;-67
2021/11/05 14:32:52;;;;;;;45.47;6.70;;;;;;;;;;4288432;33;20131;-68
2021/11/05 14:35:25;;;;;;;39.85;6.40;;;;;;;;;;4276070;33;20100;-68